sensor_id;sensor_type;location;lat;lon;timestamp;P1;durP1;ratioP1;P2;durP2;ratioP2
60370;SDS011;48550;40.588;49.684;2023-08-08T00:01:06;28.98;;;6.85;;
60370;SDS011;48550;40.588;49.684;2023-08-08T00:03:33;20.05;;;6.53;;
60370;SDS011;48550;40.588;49.684;2023-08-08T00:05:59;23.25;;;6.93;;
60370;SDS011;48550;40.588;49.684;2023-08-08T00:08:25;28.45;;;7.53;;
60370;SDS011;48550;40.588;49.684;2023-08-08T00:10:51;31.08;;;7.18;;
60370;SDS011;48550;40.588;49.684;2023-08-08T00:13:16;22.13;;;7.43;;
60370;SDS011;48550;40.588;49.684;2023-08-08T00:15:42;35.75;;;6.72;;
60370;SDS011;48550;40.588;49.684;2023-08-08T00:18:08;21.33;;;6.20;;
60370;SDS011;48550;40.588;49.684;2023-08-08T00:20:34;30.67;;;6.32;;
60370;SDS011;48550;40.588;49.684;2023-08-08T00:23:00;25.77;;;6.60;;
60370;SDS011;48550;40.588;49.684;2023-08-08T00:25:25;25.80;;;6.60;;
60370;SDS011;48550;40.588;49.684;2023-08-08T00:27:51;24.95;;;6.57;;
60370;SDS011;48550;40.588;49.684;2023-08-08T00:30:17;27.05;;;6.63;;
60370;SDS011;48550;40.588;49.684;2023-08-08T00:32:43;31.67;;;7.03;;
60370;SDS011;48550;40.588;49.684;2023-08-08T00:35:08;37.38;;;7.03;;
60370;SDS011;48550;40.588;49.684;2023-08-08T00:37:34;23.17;;;6.78;;
60370;SDS011;48550;40.588;49.684;2023-08-08T00:40:00;20.40;;;5.90;;
60370;SDS011;48550;40.588;49.684;2023-08-08T00:42:26;22.55;;;5.95;;
60370;SDS011;48550;40.588;49.684;2023-08-08T00:44:52;24.52;;;6.10;;
60370;SDS011;48550;40.588;49.684;2023-08-08T00:47:17;27.13;;;6.97;;
60370;SDS011;48550;40.588;49.684;2023-08-08T00:49:43;25.40;;;6.70;;
60370;SDS011;48550;40.588;49.684;2023-08-08T00:52:11;22.15;;;7.18;;
60370;SDS011;48550;40.588;49.684;2023-08-08T00:54:38;25.73;;;6.90;;
60370;SDS011;48550;40.588;49.684;2023-08-08T00:57:04;27.40;;;7.75;;
60370;SDS011;48550;40.588;49.684;2023-08-08T00:59:30;22.90;;;7.53;;
60370;SDS011;48550;40.588;49.684;2023-08-08T01:01:57;22.35;;;7.35;;
60370;SDS011;48550;40.588;49.684;2023-08-08T01:04:24;27.95;;;8.38;;
60370;SDS011;48550;40.588;49.684;2023-08-08T01:12:11;26.25;;;11.30;;
60370;SDS011;48550;40.588;49.684;2023-08-08T01:14:40;37.88;;;18.33;;
60370;SDS011;48550;40.588;49.684;2023-08-08T01:17:07;26.05;;;8.50;;
60370;SDS011;48550;40.588;49.684;2023-08-08T01:19:35;16.77;;;8.55;;
60370;SDS011;48550;40.588;49.684;2023-08-08T01:22:02;28.25;;;10.20;;
60370;SDS011;48550;40.588;49.684;2023-08-08T01:24:30;16.77;;;8.48;;
60370;SDS011;48550;40.588;49.684;2023-08-08T01:26:59;21.67;;;8.60;;
60370;SDS011;48550;40.588;49.684;2023-08-08T01:29:26;21.98;;;8.45;;
60370;SDS011;48550;40.588;49.684;2023-08-08T01:31:52;19.60;;;8.07;;
60370;SDS011;48550;40.588;49.684;2023-08-08T01:34:18;26.50;;;9.27;;
60370;SDS011;48550;40.588;49.684;2023-08-08T01:39:32;26.42;;;9.15;;
60370;SDS011;48550;40.588;49.684;2023-08-08T01:41:59;18.60;;;8.50;;
60370;SDS011;48550;40.588;49.684;2023-08-08T01:44:26;19.63;;;8.98;;
60370;SDS011;48550;40.588;49.684;2023-08-08T01:46:54;21.58;;;9.57;;
60370;SDS011;48550;40.588;49.684;2023-08-08T01:49:20;22.35;;;10.13;;
60370;SDS011;48550;40.588;49.684;2023-08-08T01:51:46;30.20;;;11.73;;
60370;SDS011;48550;40.588;49.684;2023-08-08T01:54:13;29.70;;;11.80;;
60370;SDS011;48550;40.588;49.684;2023-08-08T01:56:39;32.47;;;11.63;;
60370;SDS011;48550;40.588;49.684;2023-08-08T01:59:05;23.02;;;9.32;;
60370;SDS011;48550;40.588;49.684;2023-08-08T02:01:30;31.15;;;10.88;;
60370;SDS011;48550;40.588;49.684;2023-08-08T02:03:56;25.50;;;9.25;;
60370;SDS011;48550;40.588;49.684;2023-08-08T02:06:22;23.98;;;10.10;;
60370;SDS011;48550;40.588;49.684;2023-08-08T02:08:47;23.08;;;10.40;;
60370;SDS011;48550;40.588;49.684;2023-08-08T02:11:13;27.60;;;9.93;;
60370;SDS011;48550;40.588;49.684;2023-08-08T02:13:39;25.70;;;10.13;;
60370;SDS011;48550;40.588;49.684;2023-08-08T02:16:04;22.90;;;10.82;;
60370;SDS011;48550;40.588;49.684;2023-08-08T02:18:30;25.58;;;10.05;;
60370;SDS011;48550;40.588;49.684;2023-08-08T02:20:56;26.30;;;10.48;;
60370;SDS011;48550;40.588;49.684;2023-08-08T02:23:21;25.98;;;9.75;;
60370;SDS011;48550;40.588;49.684;2023-08-08T02:25:47;20.63;;;10.20;;
60370;SDS011;48550;40.588;49.684;2023-08-08T02:28:13;24.65;;;11.25;;
60370;SDS011;48550;40.588;49.684;2023-08-08T02:30:39;27.50;;;12.50;;
60370;SDS011;48550;40.588;49.684;2023-08-08T02:33:04;32.83;;;12.07;;
60370;SDS011;48550;40.588;49.684;2023-08-08T02:35:30;25.60;;;11.80;;
60370;SDS011;48550;40.588;49.684;2023-08-08T02:37:56;23.85;;;11.70;;
60370;SDS011;48550;40.588;49.684;2023-08-08T02:40:22;35.72;;;11.93;;
60370;SDS011;48550;40.588;49.684;2023-08-08T02:42:49;30.40;;;11.80;;
60370;SDS011;48550;40.588;49.684;2023-08-08T02:45:15;22.25;;;10.05;;
60370;SDS011;48550;40.588;49.684;2023-08-08T02:47:41;26.92;;;10.93;;
60370;SDS011;48550;40.588;49.684;2023-08-08T02:50:07;30.85;;;12.23;;
60370;SDS011;48550;40.588;49.684;2023-08-08T02:52:33;36.13;;;11.75;;
60370;SDS011;48550;40.588;49.684;2023-08-08T02:54:58;28.52;;;12.30;;
60370;SDS011;48550;40.588;49.684;2023-08-08T02:57:27;26.13;;;11.52;;
60370;SDS011;48550;40.588;49.684;2023-08-08T02:59:53;28.58;;;11.27;;
60370;SDS011;48550;40.588;49.684;2023-08-08T03:02:18;26.65;;;13.60;;
60370;SDS011;48550;40.588;49.684;2023-08-08T03:04:44;27.10;;;14.85;;
60370;SDS011;48550;40.588;49.684;2023-08-08T03:07:10;29.27;;;13.10;;
60370;SDS011;48550;40.588;49.684;2023-08-08T03:09:35;30.00;;;13.88;;
60370;SDS011;48550;40.588;49.684;2023-08-08T03:12:01;28.98;;;13.82;;
60370;SDS011;48550;40.588;49.684;2023-08-08T03:14:27;26.73;;;12.88;;
60370;SDS011;48550;40.588;49.684;2023-08-08T03:16:53;33.17;;;13.63;;
60370;SDS011;48550;40.588;49.684;2023-08-08T03:19:18;36.90;;;11.63;;
60370;SDS011;48550;40.588;49.684;2023-08-08T03:21:44;30.48;;;10.52;;
60370;SDS011;48550;40.588;49.684;2023-08-08T03:24:10;30.77;;;10.10;;
60370;SDS011;48550;40.588;49.684;2023-08-08T03:26:35;25.55;;;7.97;;
60370;SDS011;48550;40.588;49.684;2023-08-08T03:29:01;24.42;;;8.07;;
60370;SDS011;48550;40.588;49.684;2023-08-08T03:31:27;21.98;;;8.55;;
60370;SDS011;48550;40.588;49.684;2023-08-08T03:33:52;28.17;;;8.02;;
60370;SDS011;48550;40.588;49.684;2023-08-08T03:36:18;23.83;;;7.43;;
60370;SDS011;48550;40.588;49.684;2023-08-08T03:38:44;22.92;;;7.80;;
60370;SDS011;48550;40.588;49.684;2023-08-08T03:41:11;23.40;;;7.70;;
60370;SDS011;48550;40.588;49.684;2023-08-08T03:43:38;28.42;;;7.63;;
60370;SDS011;48550;40.588;49.684;2023-08-08T03:46:05;21.35;;;8.10;;
60370;SDS011;48550;40.588;49.684;2023-08-08T03:48:31;23.42;;;7.30;;
60370;SDS011;48550;40.588;49.684;2023-08-08T03:50:57;24.55;;;8.00;;
60370;SDS011;48550;40.588;49.684;2023-08-08T03:53:22;21.55;;;7.63;;
60370;SDS011;48550;40.588;49.684;2023-08-08T03:55:48;28.63;;;8.02;;
60370;SDS011;48550;40.588;49.684;2023-08-08T03:58:14;18.70;;;6.82;;
60370;SDS011;48550;40.588;49.684;2023-08-08T04:00:39;25.25;;;7.32;;
60370;SDS011;48550;40.588;49.684;2023-08-08T04:03:15;21.80;;;6.70;;
60370;SDS011;48550;40.588;49.684;2023-08-08T04:05:45;19.00;;;6.47;;
60370;SDS011;48550;40.588;49.684;2023-08-08T04:08:12;31.33;;;7.32;;
60370;SDS011;48550;40.588;49.684;2023-08-08T04:10:41;34.33;;;7.30;;
60370;SDS011;48550;40.588;49.684;2023-08-08T04:13:07;28.67;;;6.75;;
60370;SDS011;48550;40.588;49.684;2023-08-08T04:15:32;27.08;;;7.10;;
60370;SDS011;48550;40.588;49.684;2023-08-08T04:17:58;26.85;;;7.20;;
60370;SDS011;48550;40.588;49.684;2023-08-08T04:20:24;22.75;;;6.70;;
60370;SDS011;48550;40.588;49.684;2023-08-08T04:22:49;20.23;;;7.05;;
60370;SDS011;48550;40.588;49.684;2023-08-08T04:25:15;27.65;;;6.50;;
60370;SDS011;48550;40.588;49.684;2023-08-08T04:27:41;26.77;;;7.28;;
60370;SDS011;48550;40.588;49.684;2023-08-08T04:30:07;24.30;;;6.88;;
60370;SDS011;48550;40.588;49.684;2023-08-08T04:32:33;26.02;;;7.70;;
60370;SDS011;48550;40.588;49.684;2023-08-08T04:34:59;24.67;;;6.72;;
60370;SDS011;48550;40.588;49.684;2023-08-08T04:37:24;26.42;;;7.50;;
60370;SDS011;48550;40.588;49.684;2023-08-08T04:39:50;46.88;;;21.55;;
60370;SDS011;48550;40.588;49.684;2023-08-08T04:42:16;37.47;;;20.73;;
60370;SDS011;48550;40.588;49.684;2023-08-08T04:44:41;20.23;;;7.05;;
60370;SDS011;48550;40.588;49.684;2023-08-08T04:47:07;21.90;;;7.18;;
60370;SDS011;48550;40.588;49.684;2023-08-08T04:49:33;28.40;;;6.88;;
60370;SDS011;48550;40.588;49.684;2023-08-08T04:51:58;24.70;;;6.55;;
60370;SDS011;48550;40.588;49.684;2023-08-08T04:54:24;20.50;;;6.50;;
60370;SDS011;48550;40.588;49.684;2023-08-08T04:56:50;22.83;;;6.93;;
60370;SDS011;48550;40.588;49.684;2023-08-08T04:59:16;24.38;;;6.28;;
60370;SDS011;48550;40.588;49.684;2023-08-08T05:01:41;22.08;;;6.03;;
60370;SDS011;48550;40.588;49.684;2023-08-08T05:04:08;26.38;;;7.82;;
60370;SDS011;48550;40.588;49.684;2023-08-08T05:06:34;20.90;;;6.03;;
60370;SDS011;48550;40.588;49.684;2023-08-08T05:09:00;17.20;;;5.80;;
60370;SDS011;48550;40.588;49.684;2023-08-08T05:11:26;28.45;;;6.50;;
60370;SDS011;48550;40.588;49.684;2023-08-08T05:13:51;21.13;;;6.22;;
60370;SDS011;48550;40.588;49.684;2023-08-08T05:16:17;22.88;;;6.13;;
60370;SDS011;48550;40.588;49.684;2023-08-08T05:18:43;23.73;;;6.30;;
60370;SDS011;48550;40.588;49.684;2023-08-08T05:21:10;31.20;;;6.65;;
60370;SDS011;48550;40.588;49.684;2023-08-08T05:23:36;35.40;;;6.88;;
60370;SDS011;48550;40.588;49.684;2023-08-08T05:26:02;28.05;;;6.47;;
60370;SDS011;48550;40.588;49.684;2023-08-08T05:28:28;23.83;;;6.63;;
60370;SDS011;48550;40.588;49.684;2023-08-08T05:30:54;28.50;;;6.65;;
60370;SDS011;48550;40.588;49.684;2023-08-08T05:33:21;33.25;;;6.65;;
60370;SDS011;48550;40.588;49.684;2023-08-08T05:35:47;26.63;;;5.70;;
60370;SDS011;48550;40.588;49.684;2023-08-08T05:38:13;29.17;;;6.63;;
60370;SDS011;48550;40.588;49.684;2023-08-08T05:40:39;25.70;;;5.80;;
60370;SDS011;48550;40.588;49.684;2023-08-08T05:43:04;31.05;;;6.65;;
60370;SDS011;48550;40.588;49.684;2023-08-08T05:45:30;29.95;;;6.53;;
60370;SDS011;48550;40.588;49.684;2023-08-08T05:47:57;25.35;;;6.70;;
60370;SDS011;48550;40.588;49.684;2023-08-08T05:50:24;23.80;;;6.22;;
60370;SDS011;48550;40.588;49.684;2023-08-08T05:52:50;21.55;;;6.32;;
60370;SDS011;48550;40.588;49.684;2023-08-08T05:55:16;29.08;;;7.10;;
60370;SDS011;48550;40.588;49.684;2023-08-08T05:57:41;27.15;;;6.93;;
60370;SDS011;48550;40.588;49.684;2023-08-08T06:00:07;24.60;;;6.95;;
60370;SDS011;48550;40.588;49.684;2023-08-08T06:02:36;24.90;;;7.07;;
60370;SDS011;48550;40.588;49.684;2023-08-08T06:05:02;22.45;;;7.45;;
60370;SDS011;48550;40.588;49.684;2023-08-08T06:07:27;19.52;;;6.57;;
60370;SDS011;48550;40.588;49.684;2023-08-08T06:09:53;21.17;;;7.22;;
60370;SDS011;48550;40.588;49.684;2023-08-08T06:12:19;26.38;;;6.80;;
60370;SDS011;48550;40.588;49.684;2023-08-08T06:14:44;25.85;;;7.00;;
60370;SDS011;48550;40.588;49.684;2023-08-08T06:17:10;27.98;;;7.03;;
60370;SDS011;48550;40.588;49.684;2023-08-08T06:19:36;25.10;;;7.93;;
60370;SDS011;48550;40.588;49.684;2023-08-08T06:22:01;29.30;;;7.07;;
60370;SDS011;48550;40.588;49.684;2023-08-08T06:24:28;24.17;;;7.40;;
60370;SDS011;48550;40.588;49.684;2023-08-08T06:26:54;25.50;;;7.68;;
60370;SDS011;48550;40.588;49.684;2023-08-08T06:29:20;20.42;;;7.30;;
60370;SDS011;48550;40.588;49.684;2023-08-08T06:31:45;23.25;;;8.10;;
60370;SDS011;48550;40.588;49.684;2023-08-08T06:34:11;31.50;;;7.85;;
60370;SDS011;48550;40.588;49.684;2023-08-08T06:36:37;24.02;;;7.32;;
60370;SDS011;48550;40.588;49.684;2023-08-08T06:39:03;22.45;;;7.45;;
60370;SDS011;48550;40.588;49.684;2023-08-08T06:41:29;28.48;;;8.15;;
60370;SDS011;48550;40.588;49.684;2023-08-08T06:43:55;27.02;;;8.02;;
60370;SDS011;48550;40.588;49.684;2023-08-08T06:46:20;21.75;;;7.95;;
60370;SDS011;48550;40.588;49.684;2023-08-08T06:48:46;25.13;;;7.90;;
60370;SDS011;48550;40.588;49.684;2023-08-08T06:51:13;23.00;;;7.72;;
60370;SDS011;48550;40.588;49.684;2023-08-08T06:53:38;22.75;;;8.15;;
60370;SDS011;48550;40.588;49.684;2023-08-08T06:56:04;24.20;;;8.40;;
60370;SDS011;48550;40.588;49.684;2023-08-08T06:58:30;21.75;;;7.63;;
60370;SDS011;48550;40.588;49.684;2023-08-08T07:00:55;26.27;;;8.40;;
60370;SDS011;48550;40.588;49.684;2023-08-08T07:03:21;24.45;;;8.05;;
60370;SDS011;48550;40.588;49.684;2023-08-08T07:05:46;26.23;;;8.05;;
60370;SDS011;48550;40.588;49.684;2023-08-08T07:08:16;17.95;;;7.50;;
60370;SDS011;48550;40.588;49.684;2023-08-08T07:10:43;29.15;;;8.40;;
60370;SDS011;48550;40.588;49.684;2023-08-08T07:13:09;21.58;;;8.18;;
60370;SDS011;48550;40.588;49.684;2023-08-08T07:15:34;22.92;;;7.43;;
60370;SDS011;48550;40.588;49.684;2023-08-08T07:18:00;21.63;;;7.68;;
60370;SDS011;48550;40.588;49.684;2023-08-08T07:20:26;24.52;;;8.32;;
60370;SDS011;48550;40.588;49.684;2023-08-08T07:22:52;25.20;;;8.13;;
60370;SDS011;48550;40.588;49.684;2023-08-08T07:25:18;25.92;;;8.48;;
60370;SDS011;48550;40.588;49.684;2023-08-08T07:27:44;18.63;;;7.35;;
60370;SDS011;48550;40.588;49.684;2023-08-08T07:30:09;24.13;;;7.75;;
60370;SDS011;48550;40.588;49.684;2023-08-08T07:32:37;21.42;;;7.65;;
60370;SDS011;48550;40.588;49.684;2023-08-08T07:35:02;25.02;;;7.97;;
60370;SDS011;48550;40.588;49.684;2023-08-08T07:37:31;27.08;;;7.85;;
60370;SDS011;48550;40.588;49.684;2023-08-08T07:39:58;19.85;;;6.82;;
60370;SDS011;48550;40.588;49.684;2023-08-08T07:42:23;22.33;;;7.65;;
60370;SDS011;48550;40.588;49.684;2023-08-08T07:44:49;22.67;;;6.82;;
60370;SDS011;48550;40.588;49.684;2023-08-08T07:47:14;23.52;;;6.68;;
60370;SDS011;48550;40.588;49.684;2023-08-08T07:49:40;21.23;;;6.80;;
60370;SDS011;48550;40.588;49.684;2023-08-08T07:52:06;28.25;;;7.30;;
60370;SDS011;48550;40.588;49.684;2023-08-08T07:54:33;20.40;;;7.00;;
60370;SDS011;48550;40.588;49.684;2023-08-08T07:56:59;25.25;;;7.10;;
60370;SDS011;48550;40.588;49.684;2023-08-08T07:59:25;20.35;;;8.25;;
60370;SDS011;48550;40.588;49.684;2023-08-08T08:01:51;27.80;;;7.88;;
60370;SDS011;48550;40.588;49.684;2023-08-08T08:04:16;19.20;;;6.95;;
60370;SDS011;48550;40.588;49.684;2023-08-08T08:06:42;27.30;;;7.40;;
60370;SDS011;48550;40.588;49.684;2023-08-08T08:09:08;24.65;;;7.75;;
60370;SDS011;48550;40.588;49.684;2023-08-08T08:11:33;18.92;;;6.88;;
60370;SDS011;48550;40.588;49.684;2023-08-08T08:13:59;25.05;;;7.57;;
60370;SDS011;48550;40.588;49.684;2023-08-08T08:16:25;24.05;;;7.15;;
60370;SDS011;48550;40.588;49.684;2023-08-08T08:18:50;25.63;;;7.13;;
60370;SDS011;48550;40.588;49.684;2023-08-08T08:21:16;19.63;;;7.18;;
60370;SDS011;48550;40.588;49.684;2023-08-08T08:23:43;16.48;;;6.78;;
60370;SDS011;48550;40.588;49.684;2023-08-08T08:26:09;22.02;;;7.43;;
60370;SDS011;48550;40.588;49.684;2023-08-08T08:28:35;23.38;;;7.28;;
60370;SDS011;48550;40.588;49.684;2023-08-08T08:31:05;17.35;;;7.30;;
60370;SDS011;48550;40.588;49.684;2023-08-08T08:33:32;16.83;;;6.70;;
60370;SDS011;48550;40.588;49.684;2023-08-08T08:35:57;30.80;;;7.55;;
60370;SDS011;48550;40.588;49.684;2023-08-08T08:38:23;18.05;;;7.03;;
60370;SDS011;48550;40.588;49.684;2023-08-08T08:40:49;19.27;;;6.43;;
60370;SDS011;48550;40.588;49.684;2023-08-08T08:43:15;18.17;;;7.45;;
60370;SDS011;48550;40.588;49.684;2023-08-08T08:45:42;22.77;;;7.30;;
60370;SDS011;48550;40.588;49.684;2023-08-08T08:48:12;22.85;;;6.93;;
60370;SDS011;48550;40.588;49.684;2023-08-08T08:50:40;17.88;;;7.22;;
60370;SDS011;48550;40.588;49.684;2023-08-08T08:53:08;21.80;;;7.53;;
60370;SDS011;48550;40.588;49.684;2023-08-08T08:55:36;19.02;;;7.05;;
60370;SDS011;48550;40.588;49.684;2023-08-08T08:58:02;18.58;;;7.07;;
60370;SDS011;48550;40.588;49.684;2023-08-08T09:00:29;18.73;;;7.40;;
60370;SDS011;48550;40.588;49.684;2023-08-08T09:02:56;17.10;;;7.28;;
60370;SDS011;48550;40.588;49.684;2023-08-08T09:05:22;14.30;;;6.38;;
60370;SDS011;48550;40.588;49.684;2023-08-08T09:07:50;16.75;;;6.57;;
60370;SDS011;48550;40.588;49.684;2023-08-08T09:10:17;20.65;;;6.43;;
60370;SDS011;48550;40.588;49.684;2023-08-08T09:12:44;18.85;;;6.20;;
60370;SDS011;48550;40.588;49.684;2023-08-08T09:15:11;19.13;;;7.60;;
60370;SDS011;48550;40.588;49.684;2023-08-08T09:17:41;18.92;;;6.68;;
60370;SDS011;48550;40.588;49.684;2023-08-08T09:20:08;14.80;;;6.63;;
60370;SDS011;48550;40.588;49.684;2023-08-08T09:22:36;23.30;;;7.18;;
60370;SDS011;48550;40.588;49.684;2023-08-08T09:25:02;14.57;;;6.25;;
60370;SDS011;48550;40.588;49.684;2023-08-08T09:27:29;18.23;;;6.95;;
60370;SDS011;48550;40.588;49.684;2023-08-08T09:29:55;13.07;;;6.43;;
60370;SDS011;48550;40.588;49.684;2023-08-08T09:32:20;15.60;;;6.60;;
60370;SDS011;48550;40.588;49.684;2023-08-08T09:34:46;19.15;;;6.45;;
60370;SDS011;48550;40.588;49.684;2023-08-08T09:37:12;17.98;;;6.30;;
60370;SDS011;48550;40.588;49.684;2023-08-08T09:39:39;23.35;;;7.22;;
60370;SDS011;48550;40.588;49.684;2023-08-08T09:42:07;20.20;;;6.82;;
60370;SDS011;48550;40.588;49.684;2023-08-08T09:44:33;22.05;;;7.05;;
60370;SDS011;48550;40.588;49.684;2023-08-08T09:47:00;17.90;;;6.32;;
60370;SDS011;48550;40.588;49.684;2023-08-08T09:49:26;20.70;;;7.28;;
60370;SDS011;48550;40.588;49.684;2023-08-08T09:51:52;20.45;;;7.00;;
60370;SDS011;48550;40.588;49.684;2023-08-08T09:54:18;18.30;;;6.72;;
60370;SDS011;48550;40.588;49.684;2023-08-08T09:56:45;14.40;;;7.30;;
60370;SDS011;48550;40.588;49.684;2023-08-08T09:59:13;19.52;;;7.40;;
60370;SDS011;48550;40.588;49.684;2023-08-08T10:01:40;15.45;;;6.95;;
60370;SDS011;48550;40.588;49.684;2023-08-08T10:04:09;17.58;;;7.13;;
60370;SDS011;48550;40.588;49.684;2023-08-08T10:06:37;14.70;;;6.10;;
60370;SDS011;48550;40.588;49.684;2023-08-08T10:09:03;22.17;;;6.25;;
60370;SDS011;48550;40.588;49.684;2023-08-08T10:11:29;12.93;;;5.97;;
60370;SDS011;48550;40.588;49.684;2023-08-08T10:13:56;17.23;;;6.30;;
60370;SDS011;48550;40.588;49.684;2023-08-08T10:16:23;18.58;;;6.18;;
60370;SDS011;48550;40.588;49.684;2023-08-08T10:18:56;22.73;;;6.05;;
60370;SDS011;48550;40.588;49.684;2023-08-08T10:21:24;19.58;;;6.43;;
60370;SDS011;48550;40.588;49.684;2023-08-08T10:24:00;21.77;;;6.75;;
60370;SDS011;48550;40.588;49.684;2023-08-08T10:26:28;13.85;;;5.82;;
60370;SDS011;48550;40.588;49.684;2023-08-08T10:28:57;18.20;;;6.78;;
60370;SDS011;48550;40.588;49.684;2023-08-08T10:31:23;17.80;;;6.90;;
60370;SDS011;48550;40.588;49.684;2023-08-08T10:33:49;17.05;;;7.22;;
60370;SDS011;48550;40.588;49.684;2023-08-08T10:36:25;24.05;;;6.47;;
60370;SDS011;48550;40.588;49.684;2023-08-08T10:38:51;18.45;;;6.63;;
60370;SDS011;48550;40.588;49.684;2023-08-08T10:41:18;16.13;;;6.03;;
60370;SDS011;48550;40.588;49.684;2023-08-08T10:46:24;22.08;;;6.05;;
60370;SDS011;48550;40.588;49.684;2023-08-08T10:48:55;15.95;;;5.50;;
60370;SDS011;48550;40.588;49.684;2023-08-08T10:51:31;13.43;;;5.22;;
60370;SDS011;48550;40.588;49.684;2023-08-08T10:54:18;21.92;;;5.90;;
60370;SDS011;48550;40.588;49.684;2023-08-08T10:56:48;17.45;;;5.07;;
60370;SDS011;48550;40.588;49.684;2023-08-08T10:59:37;17.77;;;5.00;;
60370;SDS011;48550;40.588;49.684;2023-08-08T11:02:02;13.63;;;4.57;;
60370;SDS011;48550;40.588;49.684;2023-08-08T11:04:29;11.70;;;4.80;;
60370;SDS011;48550;40.588;49.684;2023-08-08T11:06:57;15.75;;;4.50;;
60370;SDS011;48550;40.588;49.684;2023-08-08T11:09:23;19.85;;;4.63;;
60370;SDS011;48550;40.588;49.684;2023-08-08T11:11:49;15.40;;;4.93;;
60370;SDS011;48550;40.588;49.684;2023-08-08T11:14:16;13.20;;;4.50;;
60370;SDS011;48550;40.588;49.684;2023-08-08T11:16:43;13.48;;;4.38;;
60370;SDS011;48550;40.588;49.684;2023-08-08T11:19:10;15.32;;;4.10;;
60370;SDS011;48550;40.588;49.684;2023-08-08T11:21:39;18.17;;;4.47;;
60370;SDS011;48550;40.588;49.684;2023-08-08T11:24:05;10.18;;;4.32;;
60370;SDS011;48550;40.588;49.684;2023-08-08T11:26:35;14.45;;;4.50;;
60370;SDS011;48550;40.588;49.684;2023-08-08T11:29:03;16.60;;;4.38;;
60370;SDS011;48550;40.588;49.684;2023-08-08T11:31:31;12.82;;;4.60;;
60370;SDS011;48550;40.588;49.684;2023-08-08T11:33:58;13.43;;;4.70;;
60370;SDS011;48550;40.588;49.684;2023-08-08T11:36:25;13.85;;;5.00;;
60370;SDS011;48550;40.588;49.684;2023-08-08T11:38:55;16.42;;;5.00;;
60370;SDS011;48550;40.588;49.684;2023-08-08T11:41:23;18.30;;;4.80;;
60370;SDS011;48550;40.588;49.684;2023-08-08T11:43:52;13.98;;;4.45;;
60370;SDS011;48550;40.588;49.684;2023-08-08T11:46:22;14.63;;;5.18;;
60370;SDS011;48550;40.588;49.684;2023-08-08T11:48:49;16.80;;;4.70;;
60370;SDS011;48550;40.588;49.684;2023-08-08T11:51:15;15.30;;;4.95;;
60370;SDS011;48550;40.588;49.684;2023-08-08T11:53:51;11.98;;;4.72;;
60370;SDS011;48550;40.588;49.684;2023-08-08T11:56:21;16.65;;;5.05;;
60370;SDS011;48550;40.588;49.684;2023-08-08T11:58:49;15.93;;;4.50;;
60370;SDS011;48550;40.588;49.684;2023-08-08T12:01:19;18.08;;;5.53;;
60370;SDS011;48550;40.588;49.684;2023-08-08T12:03:45;18.20;;;5.47;;
60370;SDS011;48550;40.588;49.684;2023-08-08T12:06:12;12.80;;;4.70;;
60370;SDS011;48550;40.588;49.684;2023-08-08T12:08:40;17.05;;;5.22;;
60370;SDS011;48550;40.588;49.684;2023-08-08T12:11:08;12.60;;;4.53;;
60370;SDS011;48550;40.588;49.684;2023-08-08T12:13:34;12.05;;;4.40;;
60370;SDS011;48550;40.588;49.684;2023-08-08T12:16:05;10.68;;;4.53;;
60370;SDS011;48550;40.588;49.684;2023-08-08T12:18:32;12.25;;;4.82;;
60370;SDS011;48550;40.588;49.684;2023-08-08T12:20:58;11.68;;;5.13;;
60370;SDS011;48550;40.588;49.684;2023-08-08T12:23:25;12.98;;;4.65;;
60370;SDS011;48550;40.588;49.684;2023-08-08T12:25:52;16.67;;;4.60;;
60370;SDS011;48550;40.588;49.684;2023-08-08T12:28:18;13.05;;;4.50;;
60370;SDS011;48550;40.588;49.684;2023-08-08T12:30:44;13.90;;;4.70;;
60370;SDS011;48550;40.588;49.684;2023-08-08T12:33:10;13.93;;;5.03;;
60370;SDS011;48550;40.588;49.684;2023-08-08T12:35:36;18.52;;;5.22;;
60370;SDS011;48550;40.588;49.684;2023-08-08T12:38:01;11.32;;;4.95;;
60370;SDS011;48550;40.588;49.684;2023-08-08T12:40:28;8.95;;;4.78;;
60370;SDS011;48550;40.588;49.684;2023-08-08T12:42:54;13.27;;;5.68;;
60370;SDS011;48550;40.588;49.684;2023-08-08T12:45:20;11.13;;;4.43;;
60370;SDS011;48550;40.588;49.684;2023-08-08T12:47:47;11.13;;;4.95;;
60370;SDS011;48550;40.588;49.684;2023-08-08T12:50:13;12.48;;;5.25;;
60370;SDS011;48550;40.588;49.684;2023-08-08T12:52:39;9.40;;;4.43;;
60370;SDS011;48550;40.588;49.684;2023-08-08T12:55:05;13.48;;;4.70;;
60370;SDS011;48550;40.588;49.684;2023-08-08T12:57:32;11.55;;;4.85;;
60370;SDS011;48550;40.588;49.684;2023-08-08T12:59:58;18.77;;;5.00;;
60370;SDS011;48550;40.588;49.684;2023-08-08T13:02:24;9.68;;;4.90;;
60370;SDS011;48550;40.588;49.684;2023-08-08T13:04:50;12.73;;;5.20;;
60370;SDS011;48550;40.588;49.684;2023-08-08T13:07:15;9.05;;;4.80;;
60370;SDS011;48550;40.588;49.684;2023-08-08T13:09:41;8.02;;;4.70;;
60370;SDS011;48550;40.588;49.684;2023-08-08T13:12:07;14.27;;;4.50;;
60370;SDS011;48550;40.588;49.684;2023-08-08T13:14:33;10.98;;;4.68;;
60370;SDS011;48550;40.588;49.684;2023-08-08T13:16:59;10.88;;;4.07;;
60370;SDS011;48550;40.588;49.684;2023-08-08T13:19:25;10.77;;;4.93;;
60370;SDS011;48550;40.588;49.684;2023-08-08T13:21:51;10.40;;;4.63;;
60370;SDS011;48550;40.588;49.684;2023-08-08T13:24:17;13.65;;;5.13;;
60370;SDS011;48550;40.588;49.684;2023-08-08T13:26:43;13.98;;;4.57;;
60370;SDS011;48550;40.588;49.684;2023-08-08T13:29:09;7.35;;;4.75;;
60370;SDS011;48550;40.588;49.684;2023-08-08T13:31:36;15.40;;;6.95;;
60370;SDS011;48550;40.588;49.684;2023-08-08T13:34:02;11.10;;;4.50;;
60370;SDS011;48550;40.588;49.684;2023-08-08T13:36:28;9.27;;;4.20;;
60370;SDS011;48550;40.588;49.684;2023-08-08T13:38:54;12.38;;;4.90;;
60370;SDS011;48550;40.588;49.684;2023-08-08T13:41:20;11.90;;;4.47;;
60370;SDS011;48550;40.588;49.684;2023-08-08T13:43:45;6.80;;;4.25;;
60370;SDS011;48550;40.588;49.684;2023-08-08T13:46:11;9.63;;;4.47;;
60370;SDS011;48550;40.588;49.684;2023-08-08T13:48:37;8.98;;;4.55;;
60370;SDS011;48550;40.588;49.684;2023-08-08T13:51:03;9.82;;;4.75;;
60370;SDS011;48550;40.588;49.684;2023-08-08T13:53:29;7.28;;;4.57;;
60370;SDS011;48550;40.588;49.684;2023-08-08T13:55:55;7.65;;;4.45;;
60370;SDS011;48550;40.588;49.684;2023-08-08T13:58:21;13.27;;;4.70;;
60370;SDS011;48550;40.588;49.684;2023-08-08T14:00:47;11.85;;;4.57;;
60370;SDS011;48550;40.588;49.684;2023-08-08T14:03:14;13.85;;;4.55;;
60370;SDS011;48550;40.588;49.684;2023-08-08T14:05:40;11.15;;;4.75;;
60370;SDS011;48550;40.588;49.684;2023-08-08T14:08:06;8.35;;;4.40;;
60370;SDS011;48550;40.588;49.684;2023-08-08T14:10:32;16.10;;;5.18;;
60370;SDS011;48550;40.588;49.684;2023-08-08T14:12:57;11.38;;;4.28;;
60370;SDS011;48550;40.588;49.684;2023-08-08T14:15:23;11.38;;;4.47;;
60370;SDS011;48550;40.588;49.684;2023-08-08T14:17:49;12.48;;;4.13;;
60370;SDS011;48550;40.588;49.684;2023-08-08T14:20:15;12.45;;;4.72;;
60370;SDS011;48550;40.588;49.684;2023-08-08T14:22:43;11.57;;;4.60;;
60370;SDS011;48550;40.588;49.684;2023-08-08T14:25:11;20.15;;;5.10;;
60370;SDS011;48550;40.588;49.684;2023-08-08T14:27:37;13.40;;;5.50;;